Nearby METAR Reports

 

KTKI - Mckinney, Texas, USA
Distance from station: NE 9mi, 14km
Observations as of: 10/16/2018 8:53pm
Overcast
Overcast
 Wind from N
Wind: N 7 mph , 11 km/h
Temperature: 52°F , 11°C
Dew Point: 48°F , 9°C
Humidity: 88%
Barometer: 30.27 inHg , 1025.1 hPa
Clouds: Overcast
Visibility: 10 miles , 16 km
Cloud details: Overcast 2200 ft
2018/10/17 01:53 KTKI 170153Z 36006KT 10SM OVC022 11/09 A3027 RMK AO2 SLP259 T01060089
KADS - Dallas/Addison, Texas, USA
Distance from station: SW 11mi, 18km
Observations as of: 10/16/2018 8:55pm
Overcast
Overcast
 Wind from N
Wind: N 5 mph , 7 km/h
Temperature: 50°F , 10°C
Wind Chill: 48°F , 9°C
Dew Point: 46°F , 8°C
Humidity: 88%
Barometer: 30.27 inHg , 1025.1 hPa
Clouds: Overcast
Visibility: 10 miles , 16 km
Cloud details: Overcast 2300 ft
2018/10/17 01:55 KADS 170155Z 36004KT 10SM OVC023 10/08 A3027
 
KF46 - Rockwall, Texas, USA
Distance from station: SE 19mi, 30km
Observations as of: 10/16/2018 9:35pm
Overcast
Overcast
 Wind from N
Wind: N 9 mph , 15 km/h
Temperature: 50°F , 10°C
Wind Chill: 46°F , 8°C
Dew Point: 50°F , 10°C
Humidity: 100%
Barometer: 30.26 inHg , 1024.7 hPa
Clouds: Overcast
Visibility: 10 miles , 16 km
Cloud details: Mostly cloudy 2100 ft
Overcast 2900 ft
2018/10/17 02:35 KF46 170235Z AUTO 36008KT 10SM BKN021 OVC029 10/10 A3026 RMK AO2 T01020101
KDAL - Dallas/Love Fld, Texas, USA
Distance from station: SSW 19mi, 31km
Observations as of: 10/16/2018 8:53pm
Light rain, Overcast
Light rain, Overcast
 Wind from N
Wind: N 7 mph , 11 km/h
Temperature: 52°F , 11°C
Dew Point: 48°F , 9°C
Humidity: 88%
Barometer: 30.26 inHg , 1024.7 hPa
Summary: Light rain
Clouds: Overcast
Visibility: 10 miles , 16 km
Cloud details: Overcast 2300 ft
2018/10/17 01:53 KDAL 170153Z 35006KT 10SM -RA OVC023 11/09 A3026 RMK AO2 RAE03B51 SLP246 P0000 T01060089
 
KDFW - Dallas/Ft Worth, Texas, USA
Distance from station: SW 23mi, 37km
Observations as of: 10/16/2018 8:53pm
Overcast
Overcast
 Wind from N
Wind: N 7 mph , 11 km/h
Temperature: 50°F , 10°C
Wind Chill: 47°F , 8°C
Dew Point: 46°F , 8°C
Humidity: 88%
Barometer: 30.24 inHg , 1024 hPa
Clouds: Overcast
Visibility: 10 miles , 16 km
Cloud details: Overcast 2300 ft
2018/10/17 01:53 KDFW 170153Z 36006KT 10SM OVC023 10/08 A3024 RMK AO2 SLP240 T01000083
KHQZ - Mesquite, Texas, USA
Distance from station: SSE 26mi, 41km
Observations as of: 10/16/2018 9:35pm
Overcast
Overcast
 Wind from calm
Wind: Calm
Temperature: 52°F , 11°C
Dew Point: 50°F , 10°C
Humidity: 94%
Barometer: 30.26 inHg , 1024.7 hPa
Clouds: Overcast
Visibility: 10 miles , 16 km
Cloud details: Overcast 2200 ft
2018/10/17 02:35 KHQZ 170235Z AUTO 00000KT 10SM OVC022 11/10 A3026 RMK AO1 T01100095
 
KDTO - Denton, Texas, USA
Distance from station: WNW 30mi, 48km
Observations as of: 10/16/2018 8:53pm
Overcast
Overcast
 Wind from NNW
Wind: NNW 3 mph , 6 km/h
Temperature: 50°F , 10°C
Dew Point: 46°F , 8°C
Humidity: 88%
Barometer: 30.27 inHg , 1025.1 hPa
Clouds: Overcast
Visibility: 10 miles , 16 km
Cloud details: Overcast 3100 ft
2018/10/17 01:53 KDTO 170153Z 34003KT 10SM OVC031 10/08 A3027 RMK AO2 SLP250 T01000083
KRBD - Dallas/Redbird, Texas, USA
Distance from station: SSW 30mi, 49km
Observations as of: 10/16/2018 8:53pm
Overcast
Overcast
 Wind from N
Wind: N 7 mph , 11 km/h
Temperature: 50°F , 10°C
Wind Chill: 47°F , 8°C
Dew Point: 46°F , 8°C
Humidity: 88%
Barometer: 30.25 inHg , 1024.4 hPa
Clouds: Overcast
Visibility: 10 miles , 16 km
Cloud details: Few Clouds 2000 ft
Overcast 2900 ft
2018/10/17 01:53 KRBD 170153Z 01006KT 10SM FEW020 OVC029 10/08 A3025 RMK AO2 SLP242 T01000083
 
KGPM - Grand Prairie, Texas, USA
Distance from station: SW 34mi, 55km
Observations as of: 10/16/2018 9:35pm
Clear
Clear
 Wind from N
Wind: N 6 mph , 9 km/h
Temperature: 50°F , 10°C
Wind Chill: 48°F , 9°C
Dew Point: 50°F , 10°C
Humidity: 100%
Barometer: 30.28 inHg , 1025.4 hPa
Clouds: Clear
Visibility: 10 miles , 16 km
2018/10/17 02:35 KGPM 170235Z AUTO 35005KT 10SM CLR 10/10 A3028 RMK AO2 T01010097
KLNC - Lancaster, Texas, USA
Distance from station: S 35mi, 57km
Observations as of: 10/16/2018 9:35pm
Overcast
Overcast
 Wind from N
Wind: N 8 mph , 13 km/h
Temperature: 50°F , 10°C
Wind Chill: 47°F , 8°C
Dew Point: 48°F , 9°C
Humidity: 94%
Barometer: 30.27 inHg , 1025.1 hPa
Clouds: Overcast
Visibility: 10 miles , 16 km
Cloud details: Mostly cloudy 2000 ft
Overcast 2800 ft
2018/10/17 02:35 KLNC 170235Z AUTO 36007KT 10SM BKN020 OVC028 10/09 A3027 RMK AO2 T01010085
 
KTRL - Terrell, Texas, USA
Distance from station: SE 36mi, 58km
Observations as of: 10/16/2018 9:07pm
Overcast
Overcast
 Wind from N
Wind: N 10 mph , 17 km/h
Temperature: 52°F , 11°C
Dew Point: 48°F , 9°C
Humidity: 88%
Barometer: 30.26 inHg , 1024.7 hPa
Clouds: Overcast
Visibility: 10 miles , 16 km
Cloud details: Overcast 2900 ft
2018/10/17 02:07 KTRL 170207Z AUTO 01009KT 10SM OVC029 11/09 A3026 RMK AO2 T01060089
KGVT - Greenville/Major, Texas, USA
Distance from station: E 37mi, 59km
Observations as of: 10/16/2018 9:35pm
Overcast
Overcast
 Wind from N
Wind: N 7 mph , 11 km/h
Temperature: 54°F , 12°C
Dew Point: 52°F , 11°C
Humidity: 94%
Barometer: 30.27 inHg , 1025.1 hPa
Clouds: Overcast
Visibility: 10 miles , 16 km
Cloud details: Overcast 2000 ft
2018/10/17 02:35 KGVT 170235Z AUTO 35006KT 10SM OVC020 12/11 A3027 RMK AO2
 
KAFW - Ft Worth/Allianc, Texas, USA
Distance from station: WSW 37mi, 60km
Observations as of: 10/16/2018 8:53pm
Light rain, Overcast
Light rain, Overcast
 Wind from N
Wind: N 8 mph , 13 km/h
Temperature: 50°F , 10°C
Wind Chill: 47°F , 8°C
Dew Point: 45°F , 7°C
Humidity: 82%
Barometer: 30.26 inHg , 1024.7 hPa
Summary: Light rain
Clouds: Overcast
Visibility: 10 miles , 16 km
Cloud details: Overcast 2400 ft
2018/10/17 01:53 KAFW 170153Z 35007KT 10SM -RA OVC024 10/07 A3026 RMK AO2 RAB03 SLP252 P0000 T01000072
KGKY - Arlington, Texas, USA
Distance from station: SW 38mi, 61km
Observations as of: 10/16/2018 8:53pm
Light rain, Overcast
Light rain, Overcast
 Wind from N
Wind: N 9 mph , 15 km/h
Temperature: 50°F , 10°C
Wind Chill: 46°F , 8°C
Dew Point: 48°F , 9°C
Humidity: 94%
Barometer: 30.25 inHg , 1024.4 hPa
Summary: Light rain
Clouds: Overcast
Visibility: 10 miles , 16 km
Cloud details: Few Clouds 2100 ft
Overcast 2700 ft
2018/10/17 01:53 KGKY 170153Z AUTO 35008KT 10SM -RA FEW021 OVC027 10/09 A3025 RMK AO2 RAB39 SLP244 T01000094 PNO $
 
KFTW - Fort Worth, Texas, USA
Distance from station: WSW 43mi, 69km
Observations as of: 10/16/2018 8:53pm
Overcast
Overcast
 Wind from N
Wind: N 8 mph , 13 km/h
Temperature: 48°F , 9°C
Wind Chill: 44°F , 7°C
Dew Point: 45°F , 7°C
Humidity: 87%
Barometer: 30.26 inHg , 1024.7 hPa
Clouds: Overcast
Visibility: 10 miles , 16 km
Cloud details: Overcast 2100 ft
2018/10/17 01:53 KFTW 170153Z 35007KT 10SM OVC021 09/07 A3026 RMK AO2 RAB12E27 SLP246 P0000 T00940072
KGYI - Sherman/Denison, Texas, USA
Distance from station: N 43mi, 69km
Observations as of: 10/16/2018 9:35pm
Mostly cloudy
Mostly cloudy
 Wind from NE
Wind: NE 3 mph , 6 km/h
Temperature: 52°F , 11°C
Dew Point: 46°F , 8°C
Humidity: 82%
Barometer: 30.29 inHg , 1025.7 hPa
Clouds: Mostly cloudy
Visibility: 10 miles , 16 km
Cloud details: Partly cloudy 5500 ft
Mostly cloudy 7000 ft
2018/10/17 02:35 KGYI 170235Z AUTO 04003KT 10SM SCT055 BKN070 11/08 A3029 RMK AO2 T01100076 TSNO
 
KJWY - Midlothian/Wax, Texas, USA
Distance from station: SSW 46mi, 75km
Observations as of: 10/16/2018 9:35pm
Rain, Overcast
Rain, Overcast
 Wind from N
Wind: N 8 mph , 13 km/h
Temperature: 50°F , 10°C
Wind Chill: 47°F , 8°C
Dew Point: 50°F , 10°C
Humidity: 100%
Barometer: 30.26 inHg , 1024.7 hPa
Summary: Rain
Clouds: Overcast
Visibility: 10 miles , 16 km
Cloud details: Partly cloudy 1700 ft
Overcast 2300 ft
2018/10/17 02:35 KJWY 170235Z AUTO 36007KT 10SM RA SCT017 OVC023 10/10 A3026 RMK AO2 T00980097
KGLE - Gainesville, Texas, USA
Distance from station: NW 48mi, 77km
Observations as of: 10/16/2018 9:35pm
Overcast
Overcast
 Wind from NNW
Wind: NNW 3 mph , 6 km/h
Temperature: 50°F , 10°C
Dew Point: 45°F , 7°C
Humidity: 82%
Barometer: 30.30 inHg , 1026.1 hPa
Clouds: Overcast
Visibility: 10 miles , 16 km
Cloud details: Overcast 4300 ft
2018/10/17 02:35 KGLE 170235Z AUTO 34003KT 10SM OVC043 10/07 A3030 RMK AO2 T01040065
 
KNFW - Fort Worth Nas, Texas, USA
Distance from station: WSW 48mi, 77km
Observations as of: 10/16/2018 7:52pm
NOT Current
Overcast
Overcast
 Wind from N
Wind: N 12 mph , 19 km/h
Temperature: 52°F , 11°C
Dew Point: 45°F , 7°C
Humidity: 77%
Barometer: 30.26 inHg , 1024.7 hPa
Clouds: Overcast
Visibility: 10 miles , 16 km
Cloud details: Overcast 2400 ft
2018/10/17 00:52 KNFW 170052Z 36010KT 10SM OVC024 11/07 A3026 RMK SLP226 T01060067 $